sensor_id;sensor_type;location;lat;lon;timestamp;P1;durP1;ratioP1;P2;durP2;ratioP2
35150;SDS011;55720;51.972;4.624;2023-03-25T00:02:09;6.32;;;1.88;;
35150;SDS011;55720;51.972;4.624;2023-03-25T00:04:36;9.68;;;1.40;;
35150;SDS011;55720;51.972;4.624;2023-03-25T00:07:03;8.63;;;1.55;;
35150;SDS011;55720;51.972;4.624;2023-03-25T00:09:29;13.15;;;1.60;;
35150;SDS011;55720;51.972;4.624;2023-03-25T00:11:54;13.57;;;2.10;;
35150;SDS011;55720;51.972;4.624;2023-03-25T00:14:21;14.00;;;1.48;;
35150;SDS011;55720;51.972;4.624;2023-03-25T00:16:49;17.33;;;2.10;;
35150;SDS011;55720;51.972;4.624;2023-03-25T00:19:16;16.65;;;1.92;;
35150;SDS011;55720;51.972;4.624;2023-03-25T00:21:45;14.30;;;1.77;;
35150;SDS011;55720;51.972;4.624;2023-03-25T00:24:15;12.52;;;1.75;;
35150;SDS011;55720;51.972;4.624;2023-03-25T00:26:44;17.98;;;1.50;;
35150;SDS011;55720;51.972;4.624;2023-03-25T00:29:11;16.60;;;1.90;;
35150;SDS011;55720;51.972;4.624;2023-03-25T00:31:37;13.32;;;2.00;;
35150;SDS011;55720;51.972;4.624;2023-03-25T00:34:03;14.63;;;1.92;;
35150;SDS011;55720;51.972;4.624;2023-03-25T00:36:29;13.85;;;1.92;;
35150;SDS011;55720;51.972;4.624;2023-03-25T00:38:55;16.30;;;2.03;;
35150;SDS011;55720;51.972;4.624;2023-03-25T00:41:21;16.88;;;2.67;;
35150;SDS011;55720;51.972;4.624;2023-03-25T00:43:52;13.30;;;1.55;;
35150;SDS011;55720;51.972;4.624;2023-03-25T00:46:20;19.10;;;2.15;;
35150;SDS011;55720;51.972;4.624;2023-03-25T00:48:47;21.45;;;2.67;;
35150;SDS011;55720;51.972;4.624;2023-03-25T00:51:12;10.07;;;1.58;;
35150;SDS011;55720;51.972;4.624;2023-03-25T00:53:43;14.00;;;1.98;;
35150;SDS011;55720;51.972;4.624;2023-03-25T00:56:09;13.20;;;1.80;;
35150;SDS011;55720;51.972;4.624;2023-03-25T00:58:36;16.08;;;2.28;;
35150;SDS011;55720;51.972;4.624;2023-03-25T01:01:06;23.13;;;2.20;;
35150;SDS011;55720;51.972;4.624;2023-03-25T01:03:34;11.07;;;1.63;;
35150;SDS011;55720;51.972;4.624;2023-03-25T01:06:01;12.02;;;1.70;;
35150;SDS011;55720;51.972;4.624;2023-03-25T01:08:27;14.48;;;1.90;;
35150;SDS011;55720;51.972;4.624;2023-03-25T01:10:53;16.05;;;1.70;;
35150;SDS011;55720;51.972;4.624;2023-03-25T01:13:20;13.18;;;2.03;;
35150;SDS011;55720;51.972;4.624;2023-03-25T01:15:46;16.20;;;1.92;;
35150;SDS011;55720;51.972;4.624;2023-03-25T01:18:12;13.57;;;1.75;;
35150;SDS011;55720;51.972;4.624;2023-03-25T01:20:39;14.50;;;2.08;;
35150;SDS011;55720;51.972;4.624;2023-03-25T01:23:04;23.73;;;2.00;;
35150;SDS011;55720;51.972;4.624;2023-03-25T01:25:30;14.27;;;2.05;;
35150;SDS011;55720;51.972;4.624;2023-03-25T01:27:55;10.30;;;1.85;;
35150;SDS011;55720;51.972;4.624;2023-03-25T01:30:21;15.80;;;1.98;;
35150;SDS011;55720;51.972;4.624;2023-03-25T01:32:46;15.30;;;1.50;;
35150;SDS011;55720;51.972;4.624;2023-03-25T01:35:12;13.90;;;2.30;;
35150;SDS011;55720;51.972;4.624;2023-03-25T01:37:37;22.80;;;3.05;;
35150;SDS011;55720;51.972;4.624;2023-03-25T01:40:03;12.13;;;1.85;;
35150;SDS011;55720;51.972;4.624;2023-03-25T01:42:32;16.23;;;2.13;;
35150;SDS011;55720;51.972;4.624;2023-03-25T01:45:31;14.57;;;3.03;;
35150;SDS011;55720;51.972;4.624;2023-03-25T01:47:53;28.00;;;3.58;;
35150;SDS011;55720;51.972;4.624;2023-03-25T01:50:22;17.80;;;2.03;;
35150;SDS011;55720;51.972;4.624;2023-03-25T01:52:48;14.27;;;2.05;;
35150;SDS011;55720;51.972;4.624;2023-03-25T01:55:16;15.02;;;2.92;;
35150;SDS011;55720;51.972;4.624;2023-03-25T01:57:42;16.90;;;2.95;;
35150;SDS011;55720;51.972;4.624;2023-03-25T02:00:11;17.50;;;2.17;;
35150;SDS011;55720;51.972;4.624;2023-03-25T02:02:39;15.73;;;2.00;;
35150;SDS011;55720;51.972;4.624;2023-03-25T02:05:07;24.95;;;2.25;;
35150;SDS011;55720;51.972;4.624;2023-03-25T02:07:37;16.27;;;1.83;;
35150;SDS011;55720;51.972;4.624;2023-03-25T02:10:07;14.05;;;2.13;;
35150;SDS011;55720;51.972;4.624;2023-03-25T02:12:34;18.58;;;2.33;;
35150;SDS011;55720;51.972;4.624;2023-03-25T02:15:00;16.63;;;1.92;;
35150;SDS011;55720;51.972;4.624;2023-03-25T02:17:32;22.80;;;2.63;;
35150;SDS011;55720;51.972;4.624;2023-03-25T02:25:57;13.63;;;2.58;;
35150;SDS011;55720;51.972;4.624;2023-03-25T02:28:53;12.07;;;2.17;;
35150;SDS011;55720;51.972;4.624;2023-03-25T02:31:57;13.65;;;2.35;;
35150;SDS011;55720;51.972;4.624;2023-03-25T02:45:52;17.95;;;2.35;;
35150;SDS011;55720;51.972;4.624;2023-03-25T02:48:41;17.50;;;2.50;;
35150;SDS011;55720;51.972;4.624;2023-03-25T02:51:16;14.82;;;2.42;;
35150;SDS011;55720;51.972;4.624;2023-03-25T02:53:50;18.08;;;3.15;;
35150;SDS011;55720;51.972;4.624;2023-03-25T02:56:18;18.85;;;2.00;;
35150;SDS011;55720;51.972;4.624;2023-03-25T02:58:47;25.77;;;2.63;;
35150;SDS011;55720;51.972;4.624;2023-03-25T03:01:15;25.20;;;2.78;;
35150;SDS011;55720;51.972;4.624;2023-03-25T03:03:41;17.73;;;2.80;;
35150;SDS011;55720;51.972;4.624;2023-03-25T03:06:06;11.07;;;1.73;;
35150;SDS011;55720;51.972;4.624;2023-03-25T03:08:45;15.82;;;1.90;;
35150;SDS011;55720;51.972;4.624;2023-03-25T03:11:24;16.50;;;1.98;;
35150;SDS011;55720;51.972;4.624;2023-03-25T03:21:54;16.75;;;1.95;;
35150;SDS011;55720;51.972;4.624;2023-03-25T03:24:27;13.82;;;2.10;;
35150;SDS011;55720;51.972;4.624;2023-03-25T03:27:07;21.48;;;2.50;;
35150;SDS011;55720;51.972;4.624;2023-03-25T03:29:56;20.02;;;2.42;;
35150;SDS011;55720;51.972;4.624;2023-03-25T03:32:48;18.85;;;2.60;;
35150;SDS011;55720;51.972;4.624;2023-03-25T03:35:32;20.27;;;3.00;;
35150;SDS011;55720;51.972;4.624;2023-03-25T03:38:03;21.67;;;3.55;;
35150;SDS011;55720;51.972;4.624;2023-03-25T03:40:35;20.25;;;2.63;;
35150;SDS011;55720;51.972;4.624;2023-03-25T03:43:04;30.23;;;3.22;;
35150;SDS011;55720;51.972;4.624;2023-03-25T03:48:04;23.17;;;2.70;;
35150;SDS011;55720;51.972;4.624;2023-03-25T03:50:50;24.63;;;2.95;;
35150;SDS011;55720;51.972;4.624;2023-03-25T03:53:41;28.30;;;2.85;;
35150;SDS011;55720;51.972;4.624;2023-03-25T03:56:58;22.05;;;3.10;;
35150;SDS011;55720;51.972;4.624;2023-03-25T03:59:06;27.85;;;3.45;;
35150;SDS011;55720;51.972;4.624;2023-03-25T04:01:39;28.35;;;3.65;;
35150;SDS011;55720;51.972;4.624;2023-03-25T04:04:21;26.98;;;4.22;;
35150;SDS011;55720;51.972;4.624;2023-03-25T04:06:54;22.60;;;3.50;;
35150;SDS011;55720;51.972;4.624;2023-03-25T04:12:04;26.73;;;3.08;;
35150;SDS011;55720;51.972;4.624;2023-03-25T04:14:35;28.05;;;3.22;;
35150;SDS011;55720;51.972;4.624;2023-03-25T04:17:03;30.73;;;3.05;;
35150;SDS011;55720;51.972;4.624;2023-03-25T04:19:29;27.23;;;2.92;;
35150;SDS011;55720;51.972;4.624;2023-03-25T04:21:58;28.77;;;2.95;;
35150;SDS011;55720;51.972;4.624;2023-03-25T04:24:23;34.63;;;4.03;;
35150;SDS011;55720;51.972;4.624;2023-03-25T04:26:50;25.42;;;3.42;;
35150;SDS011;55720;51.972;4.624;2023-03-25T04:29:17;23.52;;;2.97;;
35150;SDS011;55720;51.972;4.624;2023-03-25T04:31:43;20.95;;;2.92;;
35150;SDS011;55720;51.972;4.624;2023-03-25T04:34:13;24.67;;;3.50;;
35150;SDS011;55720;51.972;4.624;2023-03-25T04:36:39;27.58;;;3.08;;
35150;SDS011;55720;51.972;4.624;2023-03-25T04:39:07;26.63;;;3.38;;
35150;SDS011;55720;51.972;4.624;2023-03-25T04:41:33;29.90;;;4.15;;
35150;SDS011;55720;51.972;4.624;2023-03-25T04:43:59;26.25;;;3.05;;
35150;SDS011;55720;51.972;4.624;2023-03-25T04:46:24;30.65;;;3.50;;
35150;SDS011;55720;51.972;4.624;2023-03-25T04:48:50;39.33;;;4.03;;
35150;SDS011;55720;51.972;4.624;2023-03-25T04:51:18;29.60;;;4.13;;
35150;SDS011;55720;51.972;4.624;2023-03-25T04:53:43;29.30;;;3.17;;
35150;SDS011;55720;51.972;4.624;2023-03-25T04:56:11;24.35;;;3.17;;
35150;SDS011;55720;51.972;4.624;2023-03-25T04:58:40;37.00;;;3.90;;
35150;SDS011;55720;51.972;4.624;2023-03-25T05:01:06;36.97;;;4.28;;
35150;SDS011;55720;51.972;4.624;2023-03-25T05:03:35;24.73;;;3.63;;
35150;SDS011;55720;51.972;4.624;2023-03-25T05:06:04;32.03;;;3.85;;
35150;SDS011;55720;51.972;4.624;2023-03-25T05:08:29;30.13;;;4.60;;
35150;SDS011;55720;51.972;4.624;2023-03-25T05:10:55;30.30;;;3.95;;
35150;SDS011;55720;51.972;4.624;2023-03-25T05:13:20;42.50;;;4.05;;
35150;SDS011;55720;51.972;4.624;2023-03-25T05:15:46;30.75;;;3.65;;
35150;SDS011;55720;51.972;4.624;2023-03-25T05:18:12;24.45;;;3.30;;
35150;SDS011;55720;51.972;4.624;2023-03-25T05:20:39;23.52;;;2.92;;
35150;SDS011;55720;51.972;4.624;2023-03-25T05:23:07;26.48;;;4.07;;
35150;SDS011;55720;51.972;4.624;2023-03-25T05:25:45;23.85;;;2.65;;
35150;SDS011;55720;51.972;4.624;2023-03-25T05:28:11;36.67;;;3.30;;
35150;SDS011;55720;51.972;4.624;2023-03-25T05:30:40;28.02;;;3.38;;
35150;SDS011;55720;51.972;4.624;2023-03-25T05:33:09;25.98;;;3.33;;
35150;SDS011;55720;51.972;4.624;2023-03-25T05:35:36;29.75;;;3.47;;
35150;SDS011;55720;51.972;4.624;2023-03-25T05:38:05;32.53;;;3.47;;
35150;SDS011;55720;51.972;4.624;2023-03-25T05:40:36;25.02;;;2.88;;
35150;SDS011;55720;51.972;4.624;2023-03-25T05:43:02;27.17;;;3.80;;
35150;SDS011;55720;51.972;4.624;2023-03-25T05:45:28;21.60;;;3.00;;
35150;SDS011;55720;51.972;4.624;2023-03-25T05:47:53;26.60;;;2.67;;
35150;SDS011;55720;51.972;4.624;2023-03-25T05:50:19;29.50;;;3.15;;
35150;SDS011;55720;51.972;4.624;2023-03-25T05:52:45;24.67;;;3.10;;
35150;SDS011;55720;51.972;4.624;2023-03-25T05:55:18;28.42;;;3.17;;
35150;SDS011;55720;51.972;4.624;2023-03-25T05:57:45;33.15;;;5.72;;
35150;SDS011;55720;51.972;4.624;2023-03-25T06:00:11;23.02;;;3.20;;
35150;SDS011;55720;51.972;4.624;2023-03-25T06:02:39;25.88;;;3.50;;
35150;SDS011;55720;51.972;4.624;2023-03-25T06:05:07;28.30;;;3.40;;
35150;SDS011;55720;51.972;4.624;2023-03-25T06:07:37;23.50;;;2.85;;
35150;SDS011;55720;51.972;4.624;2023-03-25T06:10:03;26.35;;;3.30;;
35150;SDS011;55720;51.972;4.624;2023-03-25T06:12:29;33.15;;;3.70;;
35150;SDS011;55720;51.972;4.624;2023-03-25T06:14:57;19.40;;;2.90;;
35150;SDS011;55720;51.972;4.624;2023-03-25T06:17:22;24.13;;;2.88;;
35150;SDS011;55720;51.972;4.624;2023-03-25T06:19:49;38.45;;;3.10;;
35150;SDS011;55720;51.972;4.624;2023-03-25T06:22:17;20.27;;;2.88;;
35150;SDS011;55720;51.972;4.624;2023-03-25T06:24:46;30.27;;;3.47;;
35150;SDS011;55720;51.972;4.624;2023-03-25T06:27:16;26.67;;;3.10;;
35150;SDS011;55720;51.972;4.624;2023-03-25T06:29:42;19.48;;;3.50;;
35150;SDS011;55720;51.972;4.624;2023-03-25T06:32:09;25.75;;;2.53;;
35150;SDS011;55720;51.972;4.624;2023-03-25T06:34:37;29.67;;;3.63;;
35150;SDS011;55720;51.972;4.624;2023-03-25T06:37:03;30.00;;;3.97;;
35150;SDS011;55720;51.972;4.624;2023-03-25T06:39:29;28.10;;;4.15;;
35150;SDS011;55720;51.972;4.624;2023-03-25T06:41:58;25.35;;;2.90;;
35150;SDS011;55720;51.972;4.624;2023-03-25T06:44:24;27.75;;;3.05;;
35150;SDS011;55720;51.972;4.624;2023-03-25T06:46:50;31.23;;;4.72;;
35150;SDS011;55720;51.972;4.624;2023-03-25T06:49:15;19.58;;;2.60;;
35150;SDS011;55720;51.972;4.624;2023-03-25T06:51:41;31.30;;;3.55;;
35150;SDS011;55720;51.972;4.624;2023-03-25T06:54:06;30.23;;;3.50;;
35150;SDS011;55720;51.972;4.624;2023-03-25T06:56:32;29.20;;;3.35;;
35150;SDS011;55720;51.972;4.624;2023-03-25T06:58:57;28.45;;;4.05;;
35150;SDS011;55720;51.972;4.624;2023-03-25T07:01:23;30.85;;;2.97;;
35150;SDS011;55720;51.972;4.624;2023-03-25T07:03:48;25.65;;;3.05;;
35150;SDS011;55720;51.972;4.624;2023-03-25T07:06:18;30.00;;;3.92;;
35150;SDS011;55720;51.972;4.624;2023-03-25T07:08:45;34.88;;;4.10;;
35150;SDS011;55720;51.972;4.624;2023-03-25T07:11:11;30.30;;;4.82;;
35150;SDS011;55720;51.972;4.624;2023-03-25T07:13:38;26.17;;;3.03;;
35150;SDS011;55720;51.972;4.624;2023-03-25T07:16:04;22.27;;;3.13;;
35150;SDS011;55720;51.972;4.624;2023-03-25T07:18:30;21.67;;;3.22;;
35150;SDS011;55720;51.972;4.624;2023-03-25T07:20:56;31.55;;;2.92;;
35150;SDS011;55720;51.972;4.624;2023-03-25T07:23:21;21.42;;;2.70;;
35150;SDS011;55720;51.972;4.624;2023-03-25T07:25:47;28.50;;;3.15;;
35150;SDS011;55720;51.972;4.624;2023-03-25T07:28:12;35.67;;;3.28;;
35150;SDS011;55720;51.972;4.624;2023-03-25T07:30:38;25.40;;;3.17;;
35150;SDS011;55720;51.972;4.624;2023-03-25T07:33:03;19.90;;;3.17;;
35150;SDS011;55720;51.972;4.624;2023-03-25T07:35:29;25.83;;;3.83;;
35150;SDS011;55720;51.972;4.624;2023-03-25T07:37:54;34.25;;;3.22;;
35150;SDS011;55720;51.972;4.624;2023-03-25T07:40:20;25.40;;;2.97;;
35150;SDS011;55720;51.972;4.624;2023-03-25T07:42:45;26.85;;;3.15;;
35150;SDS011;55720;51.972;4.624;2023-03-25T07:45:11;17.23;;;3.13;;
35150;SDS011;55720;51.972;4.624;2023-03-25T07:47:36;28.85;;;3.08;;
35150;SDS011;55720;51.972;4.624;2023-03-25T07:50:02;16.05;;;2.72;;
35150;SDS011;55720;51.972;4.624;2023-03-25T07:52:28;22.23;;;3.13;;
35150;SDS011;55720;51.972;4.624;2023-03-25T07:54:53;23.45;;;2.60;;
35150;SDS011;55720;51.972;4.624;2023-03-25T07:57:19;22.95;;;2.28;;
35150;SDS011;55720;51.972;4.624;2023-03-25T07:59:45;32.72;;;4.25;;
35150;SDS011;55720;51.972;4.624;2023-03-25T08:02:13;26.15;;;3.08;;
35150;SDS011;55720;51.972;4.624;2023-03-25T08:04:39;29.30;;;3.50;;
35150;SDS011;55720;51.972;4.624;2023-03-25T08:07:05;21.98;;;2.88;;
35150;SDS011;55720;51.972;4.624;2023-03-25T08:09:30;27.10;;;2.97;;
35150;SDS011;55720;51.972;4.624;2023-03-25T08:11:56;31.17;;;3.20;;
35150;SDS011;55720;51.972;4.624;2023-03-25T08:14:21;33.70;;;3.53;;
35150;SDS011;55720;51.972;4.624;2023-03-25T08:16:47;18.50;;;3.13;;
35150;SDS011;55720;51.972;4.624;2023-03-25T08:19:12;24.08;;;3.05;;
35150;SDS011;55720;51.972;4.624;2023-03-25T08:21:38;24.50;;;3.50;;
35150;SDS011;55720;51.972;4.624;2023-03-25T08:24:03;34.22;;;4.20;;
35150;SDS011;55720;51.972;4.624;2023-03-25T08:26:32;35.80;;;3.58;;
35150;SDS011;55720;51.972;4.624;2023-03-25T08:28:59;30.87;;;3.00;;
35150;SDS011;55720;51.972;4.624;2023-03-25T08:31:26;35.55;;;3.83;;
35150;SDS011;55720;51.972;4.624;2023-03-25T08:33:57;25.13;;;3.58;;
35150;SDS011;55720;51.972;4.624;2023-03-25T08:36:26;31.63;;;3.65;;
35150;SDS011;55720;51.972;4.624;2023-03-25T08:38:52;34.53;;;3.30;;
35150;SDS011;55720;51.972;4.624;2023-03-25T08:41:18;18.85;;;2.85;;
35150;SDS011;55720;51.972;4.624;2023-03-25T08:43:43;31.15;;;3.63;;
35150;SDS011;55720;51.972;4.624;2023-03-25T08:46:09;37.28;;;3.65;;
35150;SDS011;55720;51.972;4.624;2023-03-25T08:48:34;29.70;;;3.47;;
35150;SDS011;55720;51.972;4.624;2023-03-25T08:51:00;18.33;;;2.45;;
35150;SDS011;55720;51.972;4.624;2023-03-25T08:53:26;20.33;;;2.80;;
35150;SDS011;55720;51.972;4.624;2023-03-25T08:55:52;27.23;;;3.53;;
35150;SDS011;55720;51.972;4.624;2023-03-25T08:58:18;22.88;;;2.90;;
35150;SDS011;55720;51.972;4.624;2023-03-25T09:00:45;26.77;;;3.45;;
35150;SDS011;55720;51.972;4.624;2023-03-25T09:03:11;24.55;;;3.00;;
35150;SDS011;55720;51.972;4.624;2023-03-25T09:05:37;18.08;;;3.15;;
35150;SDS011;55720;51.972;4.624;2023-03-25T09:08:05;35.75;;;4.00;;
35150;SDS011;55720;51.972;4.624;2023-03-25T09:10:32;22.63;;;2.90;;
35150;SDS011;55720;51.972;4.624;2023-03-25T09:12:58;26.63;;;3.53;;
35150;SDS011;55720;51.972;4.624;2023-03-25T09:15:23;45.05;;;3.83;;
35150;SDS011;55720;51.972;4.624;2023-03-25T09:17:49;20.58;;;2.85;;
35150;SDS011;55720;51.972;4.624;2023-03-25T09:20:14;23.83;;;3.05;;
35150;SDS011;55720;51.972;4.624;2023-03-25T09:22:40;16.05;;;3.50;;
35150;SDS011;55720;51.972;4.624;2023-03-25T09:25:06;33.00;;;3.28;;
35150;SDS011;55720;51.972;4.624;2023-03-25T09:27:32;30.05;;;3.17;;
35150;SDS011;55720;51.972;4.624;2023-03-25T09:29:58;32.22;;;4.45;;
35150;SDS011;55720;51.972;4.624;2023-03-25T09:32:24;24.73;;;3.75;;
35150;SDS011;55720;51.972;4.624;2023-03-25T09:34:49;22.05;;;2.80;;
35150;SDS011;55720;51.972;4.624;2023-03-25T09:37:15;25.15;;;3.40;;
35150;SDS011;55720;51.972;4.624;2023-03-25T09:39:41;33.83;;;3.75;;
35150;SDS011;55720;51.972;4.624;2023-03-25T09:47:46;27.10;;;3.22;;
35150;SDS011;55720;51.972;4.624;2023-03-25T09:50:32;25.77;;;3.42;;
35150;SDS011;55720;51.972;4.624;2023-03-25T09:53:02;23.20;;;3.08;;
35150;SDS011;55720;51.972;4.624;2023-03-25T09:55:39;22.08;;;3.50;;
35150;SDS011;55720;51.972;4.624;2023-03-25T10:09:40;21.00;;;3.50;;
35150;SDS011;55720;51.972;4.624;2023-03-25T10:12:11;31.73;;;3.47;;
35150;SDS011;55720;51.972;4.624;2023-03-25T10:22:58;23.38;;;2.85;;
35150;SDS011;55720;51.972;4.624;2023-03-25T10:25:33;18.85;;;3.55;;
35150;SDS011;55720;51.972;4.624;2023-03-25T10:30:39;29.75;;;3.58;;
35150;SDS011;55720;51.972;4.624;2023-03-25T10:33:15;23.20;;;2.63;;
35150;SDS011;55720;51.972;4.624;2023-03-25T10:35:52;20.95;;;2.42;;
35150;SDS011;55720;51.972;4.624;2023-03-25T10:38:21;17.67;;;2.67;;
35150;SDS011;55720;51.972;4.624;2023-03-25T10:40:54;20.60;;;2.60;;
35150;SDS011;55720;51.972;4.624;2023-03-25T10:43:34;29.60;;;3.38;;
35150;SDS011;55720;51.972;4.624;2023-03-25T10:46:05;16.77;;;2.60;;
35150;SDS011;55720;51.972;4.624;2023-03-25T10:48:33;33.35;;;3.42;;
35150;SDS011;55720;51.972;4.624;2023-03-25T10:54:02;25.85;;;3.45;;
35150;SDS011;55720;51.972;4.624;2023-03-25T10:56:29;25.25;;;3.45;;
35150;SDS011;55720;51.972;4.624;2023-03-25T10:58:59;24.38;;;3.13;;
35150;SDS011;55720;51.972;4.624;2023-03-25T11:04:07;28.30;;;3.30;;
35150;SDS011;55720;51.972;4.624;2023-03-25T11:06:37;20.50;;;4.10;;
35150;SDS011;55720;51.972;4.624;2023-03-25T11:11:32;20.65;;;2.63;;
35150;SDS011;55720;51.972;4.624;2023-03-25T11:13:59;22.75;;;3.08;;
35150;SDS011;55720;51.972;4.624;2023-03-25T11:16:25;16.48;;;2.42;;
35150;SDS011;55720;51.972;4.624;2023-03-25T11:18:52;27.17;;;2.72;;
35150;SDS011;55720;51.972;4.624;2023-03-25T11:21:18;22.50;;;3.10;;
35150;SDS011;55720;51.972;4.624;2023-03-25T11:23:49;20.15;;;2.55;;
35150;SDS011;55720;51.972;4.624;2023-03-25T11:26:20;21.20;;;3.15;;
35150;SDS011;55720;51.972;4.624;2023-03-25T11:28:48;16.83;;;3.20;;
35150;SDS011;55720;51.972;4.624;2023-03-25T11:31:18;27.43;;;3.03;;
35150;SDS011;55720;51.972;4.624;2023-03-25T11:33:46;21.92;;;2.78;;
35150;SDS011;55720;51.972;4.624;2023-03-25T11:36:28;19.42;;;3.40;;
35150;SDS011;55720;51.972;4.624;2023-03-25T11:38:59;19.83;;;2.70;;
35150;SDS011;55720;51.972;4.624;2023-03-25T11:41:35;17.60;;;3.05;;
35150;SDS011;55720;51.972;4.624;2023-03-25T11:44:04;11.32;;;1.98;;
35150;SDS011;55720;51.972;4.624;2023-03-25T11:46:31;8.90;;;1.70;;
35150;SDS011;55720;51.972;4.624;2023-03-25T11:49:06;20.73;;;3.05;;
35150;SDS011;55720;51.972;4.624;2023-03-25T11:51:33;11.77;;;3.03;;
35150;SDS011;55720;51.972;4.624;2023-03-25T11:54:01;22.25;;;3.22;;
35150;SDS011;55720;51.972;4.624;2023-03-25T11:56:33;17.83;;;2.65;;
35150;SDS011;55720;51.972;4.624;2023-03-25T11:59:00;12.90;;;2.40;;
35150;SDS011;55720;51.972;4.624;2023-03-25T12:01:28;14.90;;;2.47;;
35150;SDS011;55720;51.972;4.624;2023-03-25T12:04:20;8.18;;;1.38;;
35150;SDS011;55720;51.972;4.624;2023-03-25T12:06:55;16.80;;;2.70;;
35150;SDS011;55720;51.972;4.624;2023-03-25T12:09:21;19.23;;;2.55;;
35150;SDS011;55720;51.972;4.624;2023-03-25T12:14:24;20.27;;;2.63;;
35150;SDS011;55720;51.972;4.624;2023-03-25T12:19:31;16.65;;;2.75;;
35150;SDS011;55720;51.972;4.624;2023-03-25T12:44:46;18.35;;;2.38;;
35150;SDS011;55720;51.972;4.624;2023-03-25T12:50:26;10.40;;;2.28;;
35150;SDS011;55720;51.972;4.624;2023-03-25T12:54:08;15.73;;;2.15;;
35150;SDS011;55720;51.972;4.624;2023-03-25T12:56:56;14.43;;;2.25;;
35150;SDS011;55720;51.972;4.624;2023-03-25T13:07:53;20.83;;;2.30;;
35150;SDS011;55720;51.972;4.624;2023-03-25T13:10:27;11.35;;;2.72;;
35150;SDS011;55720;51.972;4.624;2023-03-25T13:13:13;16.75;;;2.88;;
35150;SDS011;55720;51.972;4.624;2023-03-25T13:15:44;24.88;;;3.17;;
35150;SDS011;55720;51.972;4.624;2023-03-25T13:21:17;13.60;;;2.40;;
35150;SDS011;55720;51.972;4.624;2023-03-25T13:23:47;13.10;;;2.38;;
35150;SDS011;55720;51.972;4.624;2023-03-25T13:26:20;10.82;;;2.38;;
35150;SDS011;55720;51.972;4.624;2023-03-25T13:31:19;16.83;;;1.97;;
35150;SDS011;55720;51.972;4.624;2023-03-25T13:33:47;15.13;;;2.35;;
35150;SDS011;55720;51.972;4.624;2023-03-25T13:36:24;15.80;;;1.92;;
35150;SDS011;55720;51.972;4.624;2023-03-25T13:38:51;26.73;;;2.45;;
35150;SDS011;55720;51.972;4.624;2023-03-25T13:44:18;18.77;;;2.45;;
35150;SDS011;55720;51.972;4.624;2023-03-25T13:46:57;21.35;;;2.88;;
35150;SDS011;55720;51.972;4.624;2023-03-25T13:49:31;16.80;;;2.63;;
35150;SDS011;55720;51.972;4.624;2023-03-25T13:52:03;26.48;;;2.53;;
35150;SDS011;55720;51.972;4.624;2023-03-25T13:54:32;16.30;;;2.58;;
35150;SDS011;55720;51.972;4.624;2023-03-25T14:03:05;15.25;;;2.40;;
35150;SDS011;55720;51.972;4.624;2023-03-25T14:14:10;15.65;;;2.17;;
35150;SDS011;55720;51.972;4.624;2023-03-25T14:16:43;17.63;;;2.50;;
35150;SDS011;55720;51.972;4.624;2023-03-25T14:19:13;20.48;;;2.28;;
35150;SDS011;55720;51.972;4.624;2023-03-25T14:21:46;12.27;;;2.08;;
35150;SDS011;55720;51.972;4.624;2023-03-25T14:24:17;12.52;;;2.63;;
35150;SDS011;55720;51.972;4.624;2023-03-25T14:26:49;13.30;;;2.67;;
35150;SDS011;55720;51.972;4.624;2023-03-25T14:34:48;19.65;;;2.28;;
35150;SDS011;55720;51.972;4.624;2023-03-25T14:39:45;13.70;;;2.58;;
35150;SDS011;55720;51.972;4.624;2023-03-25T14:45:31;13.68;;;2.65;;
35150;SDS011;55720;51.972;4.624;2023-03-25T14:48:06;20.17;;;2.55;;
35150;SDS011;55720;51.972;4.624;2023-03-25T14:50:52;19.58;;;2.20;;
35150;SDS011;55720;51.972;4.624;2023-03-25T14:53:30;11.60;;;2.90;;
35150;SDS011;55720;51.972;4.624;2023-03-25T14:55:55;15.65;;;2.35;;
35150;SDS011;55720;51.972;4.624;2023-03-25T14:58:27;17.05;;;2.78;;
35150;SDS011;55720;51.972;4.624;2023-03-25T15:01:27;24.20;;;3.22;;
35150;SDS011;55720;51.972;4.624;2023-03-25T15:03:48;18.65;;;3.08;;
35150;SDS011;55720;51.972;4.624;2023-03-25T15:06:40;22.35;;;2.53;;
35150;SDS011;55720;51.972;4.624;2023-03-25T15:09:11;16.33;;;2.47;;
35150;SDS011;55720;51.972;4.624;2023-03-25T15:12:02;17.73;;;2.85;;
35150;SDS011;55720;51.972;4.624;2023-03-25T15:17:04;18.25;;;2.53;;
35150;SDS011;55720;51.972;4.624;2023-03-25T15:22:20;22.67;;;3.83;;
35150;SDS011;55720;51.972;4.624;2023-03-25T15:24:48;17.48;;;2.63;;
35150;SDS011;55720;51.972;4.624;2023-03-25T15:27:37;26.83;;;2.92;;
35150;SDS011;55720;51.972;4.624;2023-03-25T15:52:24;27.35;;;3.03;;
35150;SDS011;55720;51.972;4.624;2023-03-25T15:55:07;27.02;;;4.15;;
35150;SDS011;55720;51.972;4.624;2023-03-25T15:57:39;23.10;;;3.50;;
35150;SDS011;55720;51.972;4.624;2023-03-25T16:00:28;17.92;;;2.53;;
35150;SDS011;55720;51.972;4.624;2023-03-25T16:03:05;22.63;;;3.05;;
35150;SDS011;55720;51.972;4.624;2023-03-25T16:05:38;24.15;;;3.15;;
35150;SDS011;55720;51.972;4.624;2023-03-25T16:08:30;19.17;;;3.03;;
35150;SDS011;55720;51.972;4.624;2023-03-25T16:11:14;20.02;;;3.35;;
35150;SDS011;55720;51.972;4.624;2023-03-25T16:13:46;19.63;;;2.60;;
35150;SDS011;55720;51.972;4.624;2023-03-25T16:16:12;21.15;;;2.90;;
35150;SDS011;55720;51.972;4.624;2023-03-25T16:18:42;27.00;;;3.38;;
35150;SDS011;55720;51.972;4.624;2023-03-25T16:21:10;19.25;;;3.35;;
35150;SDS011;55720;51.972;4.624;2023-03-25T16:23:35;14.98;;;2.47;;
35150;SDS011;55720;51.972;4.624;2023-03-25T16:26:02;22.73;;;3.13;;
35150;SDS011;55720;51.972;4.624;2023-03-25T16:28:32;20.52;;;3.00;;
35150;SDS011;55720;51.972;4.624;2023-03-25T16:31:08;27.35;;;3.63;;
35150;SDS011;55720;51.972;4.624;2023-03-25T16:33:51;22.13;;;3.33;;
35150;SDS011;55720;51.972;4.624;2023-03-25T16:36:23;29.65;;;3.42;;
35150;SDS011;55720;51.972;4.624;2023-03-25T16:38:49;27.00;;;3.30;;
35150;SDS011;55720;51.972;4.624;2023-03-25T16:41:15;30.10;;;3.97;;
35150;SDS011;55720;51.972;4.624;2023-03-25T16:43:41;22.45;;;3.20;;
35150;SDS011;55720;51.972;4.624;2023-03-25T16:46:07;23.45;;;4.22;;
35150;SDS011;55720;51.972;4.624;2023-03-25T16:48:35;24.65;;;3.15;;
35150;SDS011;55720;51.972;4.624;2023-03-25T16:51:20;19.23;;;2.67;;
35150;SDS011;55720;51.972;4.624;2023-03-25T16:53:53;19.42;;;3.00;;
35150;SDS011;55720;51.972;4.624;2023-03-25T16:56:32;24.92;;;3.70;;
35150;SDS011;55720;51.972;4.624;2023-03-25T16:59:06;24.70;;;3.45;;
35150;SDS011;55720;51.972;4.624;2023-03-25T17:01:40;34.05;;;4.07;;
35150;SDS011;55720;51.972;4.624;2023-03-25T17:06:41;17.40;;;2.25;;
35150;SDS011;55720;51.972;4.624;2023-03-25T17:09:13;29.02;;;3.55;;
35150;SDS011;55720;51.972;4.624;2023-03-25T17:11:41;25.13;;;3.47;;
35150;SDS011;55720;51.972;4.624;2023-03-25T17:14:10;31.38;;;3.85;;
35150;SDS011;55720;51.972;4.624;2023-03-25T17:16:42;20.92;;;3.50;;
35150;SDS011;55720;51.972;4.624;2023-03-25T17:19:13;22.67;;;3.70;;
35150;SDS011;55720;51.972;4.624;2023-03-25T17:24:27;37.70;;;4.30;;
35150;SDS011;55720;51.972;4.624;2023-03-25T17:27:16;27.27;;;3.65;;
35150;SDS011;55720;51.972;4.624;2023-03-25T17:29:48;31.35;;;4.18;;
35150;SDS011;55720;51.972;4.624;2023-03-25T17:32:18;33.10;;;3.38;;
35150;SDS011;55720;51.972;4.624;2023-03-25T17:34:46;29.90;;;3.35;;
35150;SDS011;55720;51.972;4.624;2023-03-25T17:37:19;31.90;;;4.05;;
35150;SDS011;55720;51.972;4.624;2023-03-25T17:39:49;40.22;;;4.15;;
35150;SDS011;55720;51.972;4.624;2023-03-25T17:42:20;26.70;;;3.90;;
35150;SDS011;55720;51.972;4.624;2023-03-25T17:44:48;27.67;;;3.65;;
35150;SDS011;55720;51.972;4.624;2023-03-25T17:47:15;29.95;;;3.95;;